sensor_id;sensor_type;location;lat;lon;timestamp;P1;durP1;ratioP1;P2;durP2;ratioP2
26858;SDS011;14429;48.346;16.338;2022-07-23T00:01:05;4.60;;;3.80;;
26858;SDS011;14429;48.346;16.338;2022-07-23T00:03:30;6.47;;;3.75;;
26858;SDS011;14429;48.346;16.338;2022-07-23T00:05:55;5.15;;;3.72;;
26858;SDS011;14429;48.346;16.338;2022-07-23T00:08:21;5.50;;;4.30;;
26858;SDS011;14429;48.346;16.338;2022-07-23T00:10:46;9.70;;;4.93;;
26858;SDS011;14429;48.346;16.338;2022-07-23T00:13:12;6.85;;;4.60;;
26858;SDS011;14429;48.346;16.338;2022-07-23T00:15:37;8.25;;;4.03;;
26858;SDS011;14429;48.346;16.338;2022-07-23T00:18:04;7.22;;;4.90;;
26858;SDS011;14429;48.346;16.338;2022-07-23T00:20:30;6.65;;;4.85;;
26858;SDS011;14429;48.346;16.338;2022-07-23T00:22:55;10.02;;;5.43;;
26858;SDS011;14429;48.346;16.338;2022-07-23T00:25:21;6.43;;;4.93;;
26858;SDS011;14429;48.346;16.338;2022-07-23T00:27:48;4.80;;;3.78;;
26858;SDS011;14429;48.346;16.338;2022-07-23T00:30:14;6.88;;;3.95;;
26858;SDS011;14429;48.346;16.338;2022-07-23T00:32:46;5.65;;;4.35;;
26858;SDS011;14429;48.346;16.338;2022-07-23T00:35:14;4.45;;;3.97;;
26858;SDS011;14429;48.346;16.338;2022-07-23T00:37:39;5.15;;;4.10;;
26858;SDS011;14429;48.346;16.338;2022-07-23T00:40:05;6.82;;;3.85;;
26858;SDS011;14429;48.346;16.338;2022-07-23T00:42:31;6.82;;;4.82;;
26858;SDS011;14429;48.346;16.338;2022-07-23T00:44:57;5.47;;;4.00;;
26858;SDS011;14429;48.346;16.338;2022-07-23T00:47:23;5.10;;;3.50;;
26858;SDS011;14429;48.346;16.338;2022-07-23T00:49:48;4.57;;;3.95;;
26858;SDS011;14429;48.346;16.338;2022-07-23T00:52:15;4.43;;;3.58;;
26858;SDS011;14429;48.346;16.338;2022-07-23T00:54:41;7.90;;;3.67;;
26858;SDS011;14429;48.346;16.338;2022-07-23T00:57:06;6.38;;;4.55;;
26858;SDS011;14429;48.346;16.338;2022-07-23T00:59:32;9.38;;;4.20;;
26858;SDS011;14429;48.346;16.338;2022-07-23T01:01:57;4.68;;;3.75;;
26858;SDS011;14429;48.346;16.338;2022-07-23T01:04:23;4.57;;;3.72;;
26858;SDS011;14429;48.346;16.338;2022-07-23T01:06:48;4.60;;;3.80;;
26858;SDS011;14429;48.346;16.338;2022-07-23T01:09:16;4.55;;;3.50;;
26858;SDS011;14429;48.346;16.338;2022-07-23T01:11:42;5.10;;;3.65;;
26858;SDS011;14429;48.346;16.338;2022-07-23T01:14:08;6.22;;;3.67;;
26858;SDS011;14429;48.346;16.338;2022-07-23T01:16:35;6.68;;;3.85;;
26858;SDS011;14429;48.346;16.338;2022-07-23T01:19:01;4.68;;;3.63;;
26858;SDS011;14429;48.346;16.338;2022-07-23T01:21:26;4.95;;;3.80;;
26858;SDS011;14429;48.346;16.338;2022-07-23T01:23:53;5.32;;;3.90;;
26858;SDS011;14429;48.346;16.338;2022-07-23T01:26:19;5.00;;;4.07;;
26858;SDS011;14429;48.346;16.338;2022-07-23T01:28:44;6.28;;;4.22;;
26858;SDS011;14429;48.346;16.338;2022-07-23T01:31:10;4.95;;;4.13;;
26858;SDS011;14429;48.346;16.338;2022-07-23T01:33:35;4.88;;;3.40;;
26858;SDS011;14429;48.346;16.338;2022-07-23T01:36:01;5.53;;;4.35;;
26858;SDS011;14429;48.346;16.338;2022-07-23T01:38:26;4.22;;;3.78;;
26858;SDS011;14429;48.346;16.338;2022-07-23T01:40:53;6.03;;;4.28;;
26858;SDS011;14429;48.346;16.338;2022-07-23T01:43:19;5.85;;;4.40;;
26858;SDS011;14429;48.346;16.338;2022-07-23T01:45:44;6.13;;;4.32;;
26858;SDS011;14429;48.346;16.338;2022-07-23T01:48:10;5.00;;;3.80;;
26858;SDS011;14429;48.346;16.338;2022-07-23T01:50:35;7.88;;;4.57;;
26858;SDS011;14429;48.346;16.338;2022-07-23T01:53:01;4.72;;;4.03;;
26858;SDS011;14429;48.346;16.338;2022-07-23T01:55:26;6.93;;;4.80;;
26858;SDS011;14429;48.346;16.338;2022-07-23T01:57:53;6.78;;;4.80;;
26858;SDS011;14429;48.346;16.338;2022-07-23T02:00:19;5.20;;;4.43;;
26858;SDS011;14429;48.346;16.338;2022-07-23T02:02:44;7.20;;;4.43;;
26858;SDS011;14429;48.346;16.338;2022-07-23T02:05:10;5.93;;;4.65;;
26858;SDS011;14429;48.346;16.338;2022-07-23T02:07:35;7.28;;;4.55;;
26858;SDS011;14429;48.346;16.338;2022-07-23T02:10:01;7.32;;;4.43;;
26858;SDS011;14429;48.346;16.338;2022-07-23T02:12:26;6.97;;;4.88;;
26858;SDS011;14429;48.346;16.338;2022-07-23T02:14:53;6.43;;;3.95;;
26858;SDS011;14429;48.346;16.338;2022-07-23T02:17:19;6.95;;;4.97;;
26858;SDS011;14429;48.346;16.338;2022-07-23T02:19:44;6.57;;;5.00;;
26858;SDS011;14429;48.346;16.338;2022-07-23T02:22:10;6.65;;;4.60;;
26858;SDS011;14429;48.346;16.338;2022-07-23T02:24:35;7.50;;;5.68;;
26858;SDS011;14429;48.346;16.338;2022-07-23T02:27:01;7.15;;;5.78;;
26858;SDS011;14429;48.346;16.338;2022-07-23T02:29:26;9.57;;;5.82;;
26858;SDS011;14429;48.346;16.338;2022-07-23T02:31:53;11.20;;;7.25;;
26858;SDS011;14429;48.346;16.338;2022-07-23T02:34:19;6.97;;;5.43;;
26858;SDS011;14429;48.346;16.338;2022-07-23T02:36:44;8.73;;;5.97;;
26858;SDS011;14429;48.346;16.338;2022-07-23T02:39:10;10.10;;;6.88;;
26858;SDS011;14429;48.346;16.338;2022-07-23T02:41:35;8.73;;;6.60;;
26858;SDS011;14429;48.346;16.338;2022-07-23T02:44:01;9.02;;;6.80;;
26858;SDS011;14429;48.346;16.338;2022-07-23T02:46:27;11.45;;;6.57;;
26858;SDS011;14429;48.346;16.338;2022-07-23T02:48:54;9.52;;;5.93;;
26858;SDS011;14429;48.346;16.338;2022-07-23T02:51:19;5.80;;;4.35;;
26858;SDS011;14429;48.346;16.338;2022-07-23T02:53:45;6.80;;;5.28;;
26858;SDS011;14429;48.346;16.338;2022-07-23T02:56:10;8.00;;;5.57;;
26858;SDS011;14429;48.346;16.338;2022-07-23T02:58:36;5.63;;;4.40;;
26858;SDS011;14429;48.346;16.338;2022-07-23T03:01:01;8.20;;;4.78;;
26858;SDS011;14429;48.346;16.338;2022-07-23T03:03:27;8.35;;;6.00;;
26858;SDS011;14429;48.346;16.338;2022-07-23T03:05:54;8.32;;;5.55;;
26858;SDS011;14429;48.346;16.338;2022-07-23T03:08:19;6.35;;;4.80;;
26858;SDS011;14429;48.346;16.338;2022-07-23T03:10:45;5.75;;;4.78;;
26858;SDS011;14429;48.346;16.338;2022-07-23T03:13:10;6.55;;;4.85;;
26858;SDS011;14429;48.346;16.338;2022-07-23T03:15:36;6.57;;;4.80;;
26858;SDS011;14429;48.346;16.338;2022-07-23T03:18:01;9.85;;;5.65;;
26858;SDS011;14429;48.346;16.338;2022-07-23T03:20:27;9.23;;;5.63;;
26858;SDS011;14429;48.346;16.338;2022-07-23T03:22:53;9.13;;;5.70;;
26858;SDS011;14429;48.346;16.338;2022-07-23T03:25:19;8.20;;;5.07;;
26858;SDS011;14429;48.346;16.338;2022-07-23T03:27:44;11.18;;;5.53;;
26858;SDS011;14429;48.346;16.338;2022-07-23T03:30:10;8.00;;;5.57;;
26858;SDS011;14429;48.346;16.338;2022-07-23T03:32:36;6.65;;;4.70;;
26858;SDS011;14429;48.346;16.338;2022-07-23T03:35:02;8.32;;;5.03;;
26858;SDS011;14429;48.346;16.338;2022-07-23T03:37:27;7.05;;;5.22;;
26858;SDS011;14429;48.346;16.338;2022-07-23T03:39:54;8.43;;;4.57;;
26858;SDS011;14429;48.346;16.338;2022-07-23T03:42:20;6.93;;;4.97;;
26858;SDS011;14429;48.346;16.338;2022-07-23T03:44:45;6.97;;;5.40;;
26858;SDS011;14429;48.346;16.338;2022-07-23T03:47:11;5.90;;;4.32;;
26858;SDS011;14429;48.346;16.338;2022-07-23T03:49:36;7.72;;;5.00;;
26858;SDS011;14429;48.346;16.338;2022-07-23T03:52:02;7.50;;;5.38;;
26858;SDS011;14429;48.346;16.338;2022-07-23T03:54:28;6.72;;;5.10;;
26858;SDS011;14429;48.346;16.338;2022-07-23T03:56:54;11.52;;;5.40;;
26858;SDS011;14429;48.346;16.338;2022-07-23T03:59:20;6.07;;;4.75;;
26858;SDS011;14429;48.346;16.338;2022-07-23T04:01:46;10.43;;;4.90;;
26858;SDS011;14429;48.346;16.338;2022-07-23T04:04:11;9.25;;;5.47;;
26858;SDS011;14429;48.346;16.338;2022-07-23T04:06:37;10.65;;;5.82;;
26858;SDS011;14429;48.346;16.338;2022-07-23T04:09:02;6.22;;;4.50;;
26858;SDS011;14429;48.346;16.338;2022-07-23T04:11:28;7.60;;;4.70;;
26858;SDS011;14429;48.346;16.338;2022-07-23T04:13:55;6.50;;;4.80;;
26858;SDS011;14429;48.346;16.338;2022-07-23T04:16:20;11.85;;;5.03;;
26858;SDS011;14429;48.346;16.338;2022-07-23T04:18:46;8.25;;;5.65;;
26858;SDS011;14429;48.346;16.338;2022-07-23T04:21:11;8.18;;;4.72;;
26858;SDS011;14429;48.346;16.338;2022-07-23T04:23:37;6.80;;;4.80;;
26858;SDS011;14429;48.346;16.338;2022-07-23T04:26:02;5.93;;;5.13;;
26858;SDS011;14429;48.346;16.338;2022-07-23T04:28:28;7.70;;;5.88;;
26858;SDS011;14429;48.346;16.338;2022-07-23T04:30:56;6.43;;;5.05;;
26858;SDS011;14429;48.346;16.338;2022-07-23T04:33:22;7.53;;;4.97;;
26858;SDS011;14429;48.346;16.338;2022-07-23T04:35:48;8.10;;;5.05;;
26858;SDS011;14429;48.346;16.338;2022-07-23T04:38:13;10.27;;;5.55;;
26858;SDS011;14429;48.346;16.338;2022-07-23T04:40:39;7.18;;;4.47;;
26858;SDS011;14429;48.346;16.338;2022-07-23T04:43:04;6.22;;;4.55;;
26858;SDS011;14429;48.346;16.338;2022-07-23T04:45:30;7.28;;;4.78;;
26858;SDS011;14429;48.346;16.338;2022-07-23T04:47:57;7.80;;;5.18;;
26858;SDS011;14429;48.346;16.338;2022-07-23T04:50:22;6.15;;;4.88;;
26858;SDS011;14429;48.346;16.338;2022-07-23T04:52:48;7.55;;;5.28;;
26858;SDS011;14429;48.346;16.338;2022-07-23T04:55:13;6.60;;;5.03;;
26858;SDS011;14429;48.346;16.338;2022-07-23T04:57:39;6.32;;;4.90;;
26858;SDS011;14429;48.346;16.338;2022-07-23T05:00:05;5.65;;;4.88;;
26858;SDS011;14429;48.346;16.338;2022-07-23T05:02:32;8.18;;;5.30;;
26858;SDS011;14429;48.346;16.338;2022-07-23T05:04:59;7.30;;;5.13;;
26858;SDS011;14429;48.346;16.338;2022-07-23T05:07:24;6.60;;;4.65;;
26858;SDS011;14429;48.346;16.338;2022-07-23T05:09:50;6.93;;;4.75;;
26858;SDS011;14429;48.346;16.338;2022-07-23T05:12:16;6.50;;;4.60;;
26858;SDS011;14429;48.346;16.338;2022-07-23T05:14:41;6.50;;;4.90;;
26858;SDS011;14429;48.346;16.338;2022-07-23T05:17:07;7.88;;;5.07;;
26858;SDS011;14429;48.346;16.338;2022-07-23T05:19:32;6.97;;;4.25;;
26858;SDS011;14429;48.346;16.338;2022-07-23T05:21:59;4.88;;;4.38;;
26858;SDS011;14429;48.346;16.338;2022-07-23T05:24:25;9.85;;;5.15;;
26858;SDS011;14429;48.346;16.338;2022-07-23T05:26:50;8.02;;;5.55;;
26858;SDS011;14429;48.346;16.338;2022-07-23T05:29:16;8.65;;;5.38;;
26858;SDS011;14429;48.346;16.338;2022-07-23T05:31:41;6.50;;;5.15;;
26858;SDS011;14429;48.346;16.338;2022-07-23T05:34:07;7.65;;;4.60;;
26858;SDS011;14429;48.346;16.338;2022-07-23T05:36:32;7.43;;;4.88;;
26858;SDS011;14429;48.346;16.338;2022-07-23T05:38:59;5.78;;;4.32;;
26858;SDS011;14429;48.346;16.338;2022-07-23T05:41:25;7.05;;;4.43;;
26858;SDS011;14429;48.346;16.338;2022-07-23T05:43:50;5.70;;;4.43;;
26858;SDS011;14429;48.346;16.338;2022-07-23T05:46:16;9.13;;;4.57;;
26858;SDS011;14429;48.346;16.338;2022-07-23T05:48:41;8.63;;;4.82;;
26858;SDS011;14429;48.346;16.338;2022-07-23T05:51:07;7.13;;;4.85;;
26858;SDS011;14429;48.346;16.338;2022-07-23T05:53:33;8.57;;;5.30;;
26858;SDS011;14429;48.346;16.338;2022-07-23T05:56:00;5.28;;;4.75;;
26858;SDS011;14429;48.346;16.338;2022-07-23T05:58:26;9.13;;;5.30;;
26858;SDS011;14429;48.346;16.338;2022-07-23T06:00:51;6.88;;;5.60;;
26858;SDS011;14429;48.346;16.338;2022-07-23T06:03:17;6.53;;;5.13;;
26858;SDS011;14429;48.346;16.338;2022-07-23T06:05:42;7.53;;;5.38;;
26858;SDS011;14429;48.346;16.338;2022-07-23T06:08:08;7.75;;;4.88;;
26858;SDS011;14429;48.346;16.338;2022-07-23T06:10:33;6.75;;;4.72;;
26858;SDS011;14429;48.346;16.338;2022-07-23T06:13:00;8.27;;;5.18;;
26858;SDS011;14429;48.346;16.338;2022-07-23T06:15:26;7.15;;;4.57;;
26858;SDS011;14429;48.346;16.338;2022-07-23T06:17:51;7.45;;;4.88;;
26858;SDS011;14429;48.346;16.338;2022-07-23T06:20:17;11.65;;;6.20;;
26858;SDS011;14429;48.346;16.338;2022-07-23T06:22:42;7.97;;;5.50;;
26858;SDS011;14429;48.346;16.338;2022-07-23T06:25:08;8.68;;;5.40;;
26858;SDS011;14429;48.346;16.338;2022-07-23T06:27:33;6.53;;;4.90;;
26858;SDS011;14429;48.346;16.338;2022-07-23T06:30:01;8.35;;;5.40;;
26858;SDS011;14429;48.346;16.338;2022-07-23T06:32:27;12.23;;;5.25;;
26858;SDS011;14429;48.346;16.338;2022-07-23T06:34:52;8.25;;;4.97;;
26858;SDS011;14429;48.346;16.338;2022-07-23T06:37:18;8.68;;;4.70;;
26858;SDS011;14429;48.346;16.338;2022-07-23T06:39:44;6.55;;;5.13;;
26858;SDS011;14429;48.346;16.338;2022-07-23T06:42:09;7.88;;;4.97;;
26858;SDS011;14429;48.346;16.338;2022-07-23T06:44:35;7.45;;;5.45;;
26858;SDS011;14429;48.346;16.338;2022-07-23T06:47:02;6.43;;;4.90;;
26858;SDS011;14429;48.346;16.338;2022-07-23T06:49:30;6.15;;;5.03;;
26858;SDS011;14429;48.346;16.338;2022-07-23T06:51:55;10.27;;;5.72;;
26858;SDS011;14429;48.346;16.338;2022-07-23T06:54:21;5.80;;;4.18;;
26858;SDS011;14429;48.346;16.338;2022-07-23T06:56:46;9.75;;;5.32;;
26858;SDS011;14429;48.346;16.338;2022-07-23T06:59:12;8.60;;;5.50;;
26858;SDS011;14429;48.346;16.338;2022-07-23T07:01:37;11.43;;;5.07;;
26858;SDS011;14429;48.346;16.338;2022-07-23T07:04:04;9.65;;;5.35;;
26858;SDS011;14429;48.346;16.338;2022-07-23T07:06:30;6.63;;;5.60;;
26858;SDS011;14429;48.346;16.338;2022-07-23T07:08:55;7.28;;;4.80;;
26858;SDS011;14429;48.346;16.338;2022-07-23T07:11:21;6.35;;;4.70;;
26858;SDS011;14429;48.346;16.338;2022-07-23T07:13:46;6.55;;;4.85;;
26858;SDS011;14429;48.346;16.338;2022-07-23T07:16:12;7.45;;;4.95;;
26858;SDS011;14429;48.346;16.338;2022-07-23T07:18:38;7.68;;;4.53;;
26858;SDS011;14429;48.346;16.338;2022-07-23T07:21:05;8.25;;;5.22;;
26858;SDS011;14429;48.346;16.338;2022-07-23T07:23:31;7.22;;;5.05;;
26858;SDS011;14429;48.346;16.338;2022-07-23T07:25:56;6.15;;;4.75;;
26858;SDS011;14429;48.346;16.338;2022-07-23T07:28:22;7.28;;;4.72;;
26858;SDS011;14429;48.346;16.338;2022-07-23T07:30:47;6.70;;;4.45;;
26858;SDS011;14429;48.346;16.338;2022-07-23T07:33:13;7.43;;;4.60;;
26858;SDS011;14429;48.346;16.338;2022-07-23T07:35:38;5.78;;;4.45;;
26858;SDS011;14429;48.346;16.338;2022-07-23T07:38:05;6.97;;;4.78;;
26858;SDS011;14429;48.346;16.338;2022-07-23T07:40:30;5.45;;;4.43;;
26858;SDS011;14429;48.346;16.338;2022-07-23T07:42:56;5.78;;;4.15;;
26858;SDS011;14429;48.346;16.338;2022-07-23T07:45:22;6.60;;;4.78;;
26858;SDS011;14429;48.346;16.338;2022-07-23T07:47:48;6.40;;;4.38;;
26858;SDS011;14429;48.346;16.338;2022-07-23T07:50:14;7.30;;;5.05;;
26858;SDS011;14429;48.346;16.338;2022-07-23T07:52:40;6.20;;;4.60;;
26858;SDS011;14429;48.346;16.338;2022-07-23T07:55:08;6.13;;;4.68;;
26858;SDS011;14429;48.346;16.338;2022-07-23T07:57:35;7.45;;;4.13;;
26858;SDS011;14429;48.346;16.338;2022-07-23T08:00:01;6.03;;;4.78;;
26858;SDS011;14429;48.346;16.338;2022-07-23T08:02:26;5.72;;;4.53;;
26858;SDS011;14429;48.346;16.338;2022-07-23T08:04:52;6.22;;;4.78;;
26858;SDS011;14429;48.346;16.338;2022-07-23T08:07:18;7.25;;;4.43;;
26858;SDS011;14429;48.346;16.338;2022-07-23T08:09:44;9.35;;;4.50;;
26858;SDS011;14429;48.346;16.338;2022-07-23T08:12:11;5.30;;;3.65;;
26858;SDS011;14429;48.346;16.338;2022-07-23T08:14:36;6.82;;;4.05;;
26858;SDS011;14429;48.346;16.338;2022-07-23T08:17:02;8.52;;;4.32;;
26858;SDS011;14429;48.346;16.338;2022-07-23T08:19:28;5.60;;;3.22;;
26858;SDS011;14429;48.346;16.338;2022-07-23T08:21:53;5.15;;;4.18;;
26858;SDS011;14429;48.346;16.338;2022-07-23T08:24:19;5.75;;;4.32;;
26858;SDS011;14429;48.346;16.338;2022-07-23T08:26:44;5.43;;;4.22;;
26858;SDS011;14429;48.346;16.338;2022-07-23T08:29:11;5.70;;;3.15;;
26858;SDS011;14429;48.346;16.338;2022-07-23T08:31:37;4.70;;;3.30;;
26858;SDS011;14429;48.346;16.338;2022-07-23T08:34:02;6.53;;;4.18;;
26858;SDS011;14429;48.346;16.338;2022-07-23T08:36:28;6.13;;;3.78;;
26858;SDS011;14429;48.346;16.338;2022-07-23T08:38:53;5.57;;;4.03;;
26858;SDS011;14429;48.346;16.338;2022-07-23T08:41:19;4.68;;;3.53;;
26858;SDS011;14429;48.346;16.338;2022-07-23T08:43:45;5.90;;;3.92;;
26858;SDS011;14429;48.346;16.338;2022-07-23T08:46:12;5.88;;;4.40;;
26858;SDS011;14429;48.346;16.338;2022-07-23T08:48:38;7.25;;;4.50;;
26858;SDS011;14429;48.346;16.338;2022-07-23T08:51:04;6.13;;;4.25;;
26858;SDS011;14429;48.346;16.338;2022-07-23T08:53:31;5.13;;;3.67;;
26858;SDS011;14429;48.346;16.338;2022-07-23T08:55:58;5.90;;;3.63;;
26858;SDS011;14429;48.346;16.338;2022-07-23T08:58:24;5.30;;;3.80;;
26858;SDS011;14429;48.346;16.338;2022-07-23T09:00:50;7.55;;;4.05;;
26858;SDS011;14429;48.346;16.338;2022-07-23T09:03:18;6.30;;;4.50;;
26858;SDS011;14429;48.346;16.338;2022-07-23T09:05:45;6.78;;;4.10;;
26858;SDS011;14429;48.346;16.338;2022-07-23T09:08:12;6.40;;;4.38;;
26858;SDS011;14429;48.346;16.338;2022-07-23T09:10:46;6.65;;;4.07;;
26858;SDS011;14429;48.346;16.338;2022-07-23T09:13:23;8.05;;;4.72;;
26858;SDS011;14429;48.346;16.338;2022-07-23T09:15:50;7.43;;;4.47;;
26858;SDS011;14429;48.346;16.338;2022-07-23T09:18:17;5.03;;;4.07;;
26858;SDS011;14429;48.346;16.338;2022-07-23T09:20:43;7.53;;;4.35;;
26858;SDS011;14429;48.346;16.338;2022-07-23T09:23:08;7.88;;;3.90;;
26858;SDS011;14429;48.346;16.338;2022-07-23T09:25:34;5.80;;;4.30;;
26858;SDS011;14429;48.346;16.338;2022-07-23T09:28:00;8.77;;;4.30;;
26858;SDS011;14429;48.346;16.338;2022-07-23T09:30:27;5.22;;;4.25;;
26858;SDS011;14429;48.346;16.338;2022-07-23T09:33:03;5.03;;;3.85;;
26858;SDS011;14429;48.346;16.338;2022-07-23T09:35:48;6.93;;;4.45;;
26858;SDS011;14429;48.346;16.338;2022-07-23T09:38:15;6.88;;;4.22;;
26858;SDS011;14429;48.346;16.338;2022-07-23T09:40:43;5.70;;;3.70;;
26858;SDS011;14429;48.346;16.338;2022-07-23T09:43:09;7.82;;;4.53;;
26858;SDS011;14429;48.346;16.338;2022-07-23T09:45:35;5.15;;;3.63;;
26858;SDS011;14429;48.346;16.338;2022-07-23T09:48:10;5.22;;;4.03;;
26858;SDS011;14429;48.346;16.338;2022-07-23T09:50:37;4.97;;;4.00;;
26858;SDS011;14429;48.346;16.338;2022-07-23T09:53:04;4.50;;;3.85;;
26858;SDS011;14429;48.346;16.338;2022-07-23T09:55:30;5.05;;;3.90;;
26858;SDS011;14429;48.346;16.338;2022-07-23T09:57:57;6.15;;;4.20;;
26858;SDS011;14429;48.346;16.338;2022-07-23T10:00:22;8.32;;;3.97;;
26858;SDS011;14429;48.346;16.338;2022-07-23T10:02:48;7.50;;;4.03;;
26858;SDS011;14429;48.346;16.338;2022-07-23T10:05:15;5.57;;;3.78;;
26858;SDS011;14429;48.346;16.338;2022-07-23T10:07:41;5.43;;;4.30;;
26858;SDS011;14429;48.346;16.338;2022-07-23T10:10:09;6.05;;;4.20;;
26858;SDS011;14429;48.346;16.338;2022-07-23T10:12:35;5.22;;;4.38;;
26858;SDS011;14429;48.346;16.338;2022-07-23T10:15:01;6.22;;;4.65;;
26858;SDS011;14429;48.346;16.338;2022-07-23T10:17:27;4.97;;;4.43;;
26858;SDS011;14429;48.346;16.338;2022-07-23T10:19:53;6.43;;;4.35;;
26858;SDS011;14429;48.346;16.338;2022-07-23T10:22:20;5.07;;;4.07;;
26858;SDS011;14429;48.346;16.338;2022-07-23T10:24:49;5.50;;;3.78;;
26858;SDS011;14429;48.346;16.338;2022-07-23T10:27:34;7.80;;;4.80;;
26858;SDS011;14429;48.346;16.338;2022-07-23T10:30:26;7.57;;;4.72;;
26858;SDS011;14429;48.346;16.338;2022-07-23T10:33:10;5.20;;;3.90;;
26858;SDS011;14429;48.346;16.338;2022-07-23T10:35:43;6.38;;;4.32;;
26858;SDS011;14429;48.346;16.338;2022-07-23T10:38:16;5.68;;;3.95;;
26858;SDS011;14429;48.346;16.338;2022-07-23T10:40:53;5.20;;;3.80;;
26858;SDS011;14429;48.346;16.338;2022-07-23T10:43:22;6.28;;;4.20;;
26858;SDS011;14429;48.346;16.338;2022-07-23T10:45:48;7.82;;;4.60;;
26858;SDS011;14429;48.346;16.338;2022-07-23T10:48:15;7.88;;;4.43;;
26858;SDS011;14429;48.346;16.338;2022-07-23T10:50:42;10.13;;;4.80;;
26858;SDS011;14429;48.346;16.338;2022-07-23T10:55:44;15.32;;;5.18;;
26858;SDS011;14429;48.346;16.338;2022-07-23T10:58:11;8.13;;;4.80;;
26858;SDS011;14429;48.346;16.338;2022-07-23T11:00:44;9.07;;;4.53;;
26858;SDS011;14429;48.346;16.338;2022-07-23T11:05:54;10.18;;;4.97;;
26858;SDS011;14429;48.346;16.338;2022-07-23T11:08:20;8.45;;;4.28;;
26858;SDS011;14429;48.346;16.338;2022-07-23T11:10:50;7.25;;;5.22;;
26858;SDS011;14429;48.346;16.338;2022-07-23T11:18:54;8.13;;;4.30;;
26858;SDS011;14429;48.346;16.338;2022-07-23T11:24:16;9.48;;;5.10;;
26858;SDS011;14429;48.346;16.338;2022-07-23T11:26:47;6.45;;;4.70;;
26858;SDS011;14429;48.346;16.338;2022-07-23T11:29:49;6.65;;;4.70;;
26858;SDS011;14429;48.346;16.338;2022-07-23T11:35:00;5.90;;;3.92;;
26858;SDS011;14429;48.346;16.338;2022-07-23T11:37:27;6.75;;;4.38;;
26858;SDS011;14429;48.346;16.338;2022-07-23T11:42:28;6.18;;;4.40;;
26858;SDS011;14429;48.346;16.338;2022-07-23T11:44:53;8.35;;;4.95;;
26858;SDS011;14429;48.346;16.338;2022-07-23T11:47:21;6.72;;;4.32;;
26858;SDS011;14429;48.346;16.338;2022-07-23T11:49:52;7.78;;;5.03;;
26858;SDS011;14429;48.346;16.338;2022-07-23T11:52:18;7.50;;;4.22;;
26858;SDS011;14429;48.346;16.338;2022-07-23T11:54:47;6.03;;;4.38;;
26858;SDS011;14429;48.346;16.338;2022-07-23T11:57:13;9.82;;;5.05;;
26858;SDS011;14429;48.346;16.338;2022-07-23T11:59:39;7.47;;;4.03;;
26858;SDS011;14429;48.346;16.338;2022-07-23T12:02:05;6.50;;;4.22;;
26858;SDS011;14429;48.346;16.338;2022-07-23T12:04:38;9.00;;;4.60;;
26858;SDS011;14429;48.346;16.338;2022-07-23T12:07:08;8.70;;;4.55;;
26858;SDS011;14429;48.346;16.338;2022-07-23T12:09:48;9.10;;;4.63;;
26858;SDS011;14429;48.346;16.338;2022-07-23T12:12:13;8.27;;;5.03;;
26858;SDS011;14429;48.346;16.338;2022-07-23T12:14:46;8.68;;;4.57;;
26858;SDS011;14429;48.346;16.338;2022-07-23T12:17:12;7.45;;;4.90;;
26858;SDS011;14429;48.346;16.338;2022-07-23T12:19:38;6.22;;;4.78;;
26858;SDS011;14429;48.346;16.338;2022-07-23T12:22:06;8.68;;;5.07;;
26858;SDS011;14429;48.346;16.338;2022-07-23T12:24:33;8.40;;;4.78;;
26858;SDS011;14429;48.346;16.338;2022-07-23T12:27:19;7.40;;;4.93;;
26858;SDS011;14429;48.346;16.338;2022-07-23T12:29:45;5.47;;;4.25;;
26858;SDS011;14429;48.346;16.338;2022-07-23T12:32:19;8.80;;;4.68;;
26858;SDS011;14429;48.346;16.338;2022-07-23T12:34:45;5.80;;;4.50;;
26858;SDS011;14429;48.346;16.338;2022-07-23T12:42:46;6.88;;;4.55;;
26858;SDS011;14429;48.346;16.338;2022-07-23T12:45:12;6.32;;;4.28;;
26858;SDS011;14429;48.346;16.338;2022-07-23T12:47:51;6.10;;;4.70;;
26858;SDS011;14429;48.346;16.338;2022-07-23T12:50:31;10.43;;;5.05;;
26858;SDS011;14429;48.346;16.338;2022-07-23T12:53:04;9.18;;;4.70;;
26858;SDS011;14429;48.346;16.338;2022-07-23T12:55:32;7.13;;;4.78;;
26858;SDS011;14429;48.346;16.338;2022-07-23T12:58:02;8.10;;;4.25;;
26858;SDS011;14429;48.346;16.338;2022-07-23T13:03:28;5.47;;;4.15;;
26858;SDS011;14429;48.346;16.338;2022-07-23T13:05:56;6.13;;;4.50;;
26858;SDS011;14429;48.346;16.338;2022-07-23T13:08:24;8.10;;;4.47;;
26858;SDS011;14429;48.346;16.338;2022-07-23T13:10:51;6.65;;;4.40;;
26858;SDS011;14429;48.346;16.338;2022-07-23T13:13:17;6.75;;;4.75;;
26858;SDS011;14429;48.346;16.338;2022-07-23T13:15:44;6.80;;;4.53;;
26858;SDS011;14429;48.346;16.338;2022-07-23T13:18:10;6.70;;;4.53;;
26858;SDS011;14429;48.346;16.338;2022-07-23T13:20:35;8.95;;;4.93;;
26858;SDS011;14429;48.346;16.338;2022-07-23T13:23:01;9.10;;;3.75;;
26858;SDS011;14429;48.346;16.338;2022-07-23T13:25:28;6.97;;;3.90;;
26858;SDS011;14429;48.346;16.338;2022-07-23T13:30:42;5.22;;;3.65;;
26858;SDS011;14429;48.346;16.338;2022-07-23T13:33:08;5.90;;;4.13;;
26858;SDS011;14429;48.346;16.338;2022-07-23T13:35:34;5.20;;;3.67;;
26858;SDS011;14429;48.346;16.338;2022-07-23T13:38:01;3.80;;;3.05;;
26858;SDS011;14429;48.346;16.338;2022-07-23T13:40:28;5.55;;;2.80;;
26858;SDS011;14429;48.346;16.338;2022-07-23T13:42:54;5.40;;;3.67;;
26858;SDS011;14429;48.346;16.338;2022-07-23T13:45:19;6.60;;;3.90;;
26858;SDS011;14429;48.346;16.338;2022-07-23T13:47:45;4.32;;;3.33;;
26858;SDS011;14429;48.346;16.338;2022-07-23T13:50:10;6.03;;;3.78;;
26858;SDS011;14429;48.346;16.338;2022-07-23T13:52:36;4.63;;;3.30;;
26858;SDS011;14429;48.346;16.338;2022-07-23T13:55:02;4.57;;;2.88;;
26858;SDS011;14429;48.346;16.338;2022-07-23T13:57:29;8.05;;;4.25;;
26858;SDS011;14429;48.346;16.338;2022-07-23T13:59:55;4.32;;;3.35;;
26858;SDS011;14429;48.346;16.338;2022-07-23T14:02:21;8.48;;;3.05;;
26858;SDS011;14429;48.346;16.338;2022-07-23T14:04:46;3.53;;;2.70;;
26858;SDS011;14429;48.346;16.338;2022-07-23T14:07:12;5.03;;;3.50;;
26858;SDS011;14429;48.346;16.338;2022-07-23T14:09:38;4.43;;;3.33;;
26858;SDS011;14429;48.346;16.338;2022-07-23T14:12:04;6.20;;;3.25;;
26858;SDS011;14429;48.346;16.338;2022-07-23T14:14:32;4.53;;;3.42;;
26858;SDS011;14429;48.346;16.338;2022-07-23T14:16:57;5.55;;;2.75;;
26858;SDS011;14429;48.346;16.338;2022-07-23T14:19:23;4.10;;;2.65;;
26858;SDS011;14429;48.346;16.338;2022-07-23T14:21:49;5.45;;;3.50;;
26858;SDS011;14429;48.346;16.338;2022-07-23T14:24:14;4.75;;;3.25;;
26858;SDS011;14429;48.346;16.338;2022-07-23T14:26:40;4.00;;;2.65;;
26858;SDS011;14429;48.346;16.338;2022-07-23T14:29:05;5.00;;;2.38;;
26858;SDS011;14429;48.346;16.338;2022-07-23T14:31:32;3.22;;;2.42;;
26858;SDS011;14429;48.346;16.338;2022-07-23T14:33:58;3.53;;;3.05;;
26858;SDS011;14429;48.346;16.338;2022-07-23T14:36:23;4.80;;;2.90;;
26858;SDS011;14429;48.346;16.338;2022-07-23T14:38:49;3.40;;;2.72;;
26858;SDS011;14429;48.346;16.338;2022-07-23T14:41:14;3.75;;;2.45;;
26858;SDS011;14429;48.346;16.338;2022-07-23T14:43:40;4.65;;;2.80;;
26858;SDS011;14429;48.346;16.338;2022-07-23T14:46:05;3.60;;;2.67;;
26858;SDS011;14429;48.346;16.338;2022-07-23T14:48:33;3.95;;;2.78;;
26858;SDS011;14429;48.346;16.338;2022-07-23T14:50:58;2.78;;;2.22;;
26858;SDS011;14429;48.346;16.338;2022-07-23T14:53:24;3.65;;;2.10;;
26858;SDS011;14429;48.346;16.338;2022-07-23T14:55:49;2.63;;;2.13;;
26858;SDS011;14429;48.346;16.338;2022-07-23T14:58:15;3.25;;;2.40;;
26858;SDS011;14429;48.346;16.338;2022-07-23T15:00:40;4.15;;;2.42;;